sensor_id;sensor_type;location;lat;lon;timestamp;P1;durP1;ratioP1;P2;durP2;ratioP2
19543;SDS011;9917;51.256;7.152;2023-07-29T00:00:58;5.68;;;4.45;;
19543;SDS011;9917;51.256;7.152;2023-07-29T00:03:23;4.57;;;2.40;;
19543;SDS011;9917;51.256;7.152;2023-07-29T00:05:49;3.47;;;2.05;;
19543;SDS011;9917;51.256;7.152;2023-07-29T00:08:15;2.55;;;2.03;;
19543;SDS011;9917;51.256;7.152;2023-07-29T00:10:41;2.50;;;1.92;;
19543;SDS011;9917;51.256;7.152;2023-07-29T00:13:08;2.40;;;1.77;;
19543;SDS011;9917;51.256;7.152;2023-07-29T00:15:34;2.28;;;1.60;;
19543;SDS011;9917;51.256;7.152;2023-07-29T00:18:00;2.05;;;1.60;;
19543;SDS011;9917;51.256;7.152;2023-07-29T00:20:26;4.07;;;1.90;;
19543;SDS011;9917;51.256;7.152;2023-07-29T00:22:51;3.53;;;1.83;;
19543;SDS011;9917;51.256;7.152;2023-07-29T00:25:17;2.67;;;1.70;;
19543;SDS011;9917;51.256;7.152;2023-07-29T00:27:43;2.15;;;1.67;;
19543;SDS011;9917;51.256;7.152;2023-07-29T00:30:11;1.83;;;1.70;;
19543;SDS011;9917;51.256;7.152;2023-07-29T00:32:37;2.88;;;1.70;;
19543;SDS011;9917;51.256;7.152;2023-07-29T00:35:03;3.60;;;1.80;;
19543;SDS011;9917;51.256;7.152;2023-07-29T00:37:29;1.95;;;1.45;;
19543;SDS011;9917;51.256;7.152;2023-07-29T00:39:55;3.35;;;1.60;;
19543;SDS011;9917;51.256;7.152;2023-07-29T00:42:21;2.28;;;1.70;;
19543;SDS011;9917;51.256;7.152;2023-07-29T00:44:47;3.70;;;2.17;;
19543;SDS011;9917;51.256;7.152;2023-07-29T00:47:15;3.20;;;1.85;;
19543;SDS011;9917;51.256;7.152;2023-07-29T00:49:41;1.90;;;1.48;;
19543;SDS011;9917;51.256;7.152;2023-07-29T00:52:07;2.58;;;1.60;;
19543;SDS011;9917;51.256;7.152;2023-07-29T00:54:33;1.77;;;1.20;;
19543;SDS011;9917;51.256;7.152;2023-07-29T00:56:59;2.53;;;1.70;;
19543;SDS011;9917;51.256;7.152;2023-07-29T00:59:25;5.55;;;2.40;;
19543;SDS011;9917;51.256;7.152;2023-07-29T01:01:51;1.77;;;1.42;;
19543;SDS011;9917;51.256;7.152;2023-07-29T01:04:18;2.40;;;1.52;;
19543;SDS011;9917;51.256;7.152;2023-07-29T01:06:47;2.17;;;1.60;;
19543;SDS011;9917;51.256;7.152;2023-07-29T01:09:24;4.32;;;1.60;;
19543;SDS011;9917;51.256;7.152;2023-07-29T01:11:57;2.15;;;1.50;;
19543;SDS011;9917;51.256;7.152;2023-07-29T01:14:34;2.13;;;1.20;;
19543;SDS011;9917;51.256;7.152;2023-07-29T01:17:07;2.40;;;1.38;;
19543;SDS011;9917;51.256;7.152;2023-07-29T01:19:46;1.70;;;1.48;;
19543;SDS011;9917;51.256;7.152;2023-07-29T01:22:20;3.28;;;2.10;;
19543;SDS011;9917;51.256;7.152;2023-07-29T01:24:49;1.80;;;1.35;;
19543;SDS011;9917;51.256;7.152;2023-07-29T01:27:15;4.75;;;1.50;;
19543;SDS011;9917;51.256;7.152;2023-07-29T01:29:40;1.40;;;1.30;;
19543;SDS011;9917;51.256;7.152;2023-07-29T01:32:07;7.90;;;3.95;;
19543;SDS011;9917;51.256;7.152;2023-07-29T01:34:38;4.32;;;2.17;;
19543;SDS011;9917;51.256;7.152;2023-07-29T01:37:09;2.47;;;1.98;;
19543;SDS011;9917;51.256;7.152;2023-07-29T01:39:39;2.03;;;1.60;;
19543;SDS011;9917;51.256;7.152;2023-07-29T01:42:07;2.05;;;1.52;;
19543;SDS011;9917;51.256;7.152;2023-07-29T01:44:33;2.80;;;1.60;;
19543;SDS011;9917;51.256;7.152;2023-07-29T01:47:00;3.22;;;1.60;;
19543;SDS011;9917;51.256;7.152;2023-07-29T01:49:26;1.65;;;1.25;;
19543;SDS011;9917;51.256;7.152;2023-07-29T01:51:52;1.40;;;1.20;;
19543;SDS011;9917;51.256;7.152;2023-07-29T01:54:18;1.95;;;1.52;;
19543;SDS011;9917;51.256;7.152;2023-07-29T01:56:44;1.80;;;1.50;;
19543;SDS011;9917;51.256;7.152;2023-07-29T01:59:11;1.98;;;1.40;;
19543;SDS011;9917;51.256;7.152;2023-07-29T02:01:37;5.85;;;1.83;;
19543;SDS011;9917;51.256;7.152;2023-07-29T02:04:03;2.25;;;1.60;;
19543;SDS011;9917;51.256;7.152;2023-07-29T02:06:29;2.40;;;2.00;;
19543;SDS011;9917;51.256;7.152;2023-07-29T02:08:54;3.45;;;1.88;;
19543;SDS011;9917;51.256;7.152;2023-07-29T02:11:20;2.65;;;2.38;;
19543;SDS011;9917;51.256;7.152;2023-07-29T02:13:46;3.60;;;1.70;;
19543;SDS011;9917;51.256;7.152;2023-07-29T02:16:14;2.08;;;1.83;;
19543;SDS011;9917;51.256;7.152;2023-07-29T02:18:39;2.13;;;1.70;;
19543;SDS011;9917;51.256;7.152;2023-07-29T02:21:05;2.85;;;2.13;;
19543;SDS011;9917;51.256;7.152;2023-07-29T02:23:31;1.95;;;1.65;;
19543;SDS011;9917;51.256;7.152;2023-07-29T02:25:57;3.53;;;1.67;;
19543;SDS011;9917;51.256;7.152;2023-07-29T02:28:23;2.47;;;2.00;;
19543;SDS011;9917;51.256;7.152;2023-07-29T02:30:53;3.28;;;1.98;;
19543;SDS011;9917;51.256;7.152;2023-07-29T02:33:36;3.28;;;2.10;;
19543;SDS011;9917;51.256;7.152;2023-07-29T02:36:01;2.47;;;1.90;;
19543;SDS011;9917;51.256;7.152;2023-07-29T02:38:27;3.38;;;2.45;;
19543;SDS011;9917;51.256;7.152;2023-07-29T02:40:53;3.75;;;2.05;;
19543;SDS011;9917;51.256;7.152;2023-07-29T02:43:19;4.28;;;2.50;;
19543;SDS011;9917;51.256;7.152;2023-07-29T02:45:45;2.35;;;2.00;;
19543;SDS011;9917;51.256;7.152;2023-07-29T02:48:11;3.17;;;2.10;;
19543;SDS011;9917;51.256;7.152;2023-07-29T02:50:38;4.45;;;2.38;;
19543;SDS011;9917;51.256;7.152;2023-07-29T02:53:04;5.05;;;2.55;;
19543;SDS011;9917;51.256;7.152;2023-07-29T02:55:30;5.72;;;2.35;;
19543;SDS011;9917;51.256;7.152;2023-07-29T02:57:55;3.17;;;2.40;;
19543;SDS011;9917;51.256;7.152;2023-07-29T03:00:21;2.60;;;2.28;;
19543;SDS011;9917;51.256;7.152;2023-07-29T03:02:47;3.03;;;2.67;;
19543;SDS011;9917;51.256;7.152;2023-07-29T03:05:15;7.13;;;2.50;;
19543;SDS011;9917;51.256;7.152;2023-07-29T03:07:42;3.35;;;2.63;;
19543;SDS011;9917;51.256;7.152;2023-07-29T03:10:08;5.45;;;2.30;;
19543;SDS011;9917;51.256;7.152;2023-07-29T03:12:34;3.17;;;2.33;;
19543;SDS011;9917;51.256;7.152;2023-07-29T03:14:59;4.18;;;2.65;;
19543;SDS011;9917;51.256;7.152;2023-07-29T03:17:25;2.65;;;2.33;;
19543;SDS011;9917;51.256;7.152;2023-07-29T03:19:52;4.28;;;3.65;;
19543;SDS011;9917;51.256;7.152;2023-07-29T03:22:18;4.38;;;3.53;;
19543;SDS011;9917;51.256;7.152;2023-07-29T03:24:45;6.28;;;5.68;;
19543;SDS011;9917;51.256;7.152;2023-07-29T03:27:11;8.80;;;6.63;;
19543;SDS011;9917;51.256;7.152;2023-07-29T03:29:36;7.18;;;6.45;;
19543;SDS011;9917;51.256;7.152;2023-07-29T03:32:03;9.25;;;7.57;;
19543;SDS011;9917;51.256;7.152;2023-07-29T03:34:29;10.93;;;8.43;;
19543;SDS011;9917;51.256;7.152;2023-07-29T03:36:55;9.65;;;8.02;;
19543;SDS011;9917;51.256;7.152;2023-07-29T03:39:20;10.13;;;9.05;;
19543;SDS011;9917;51.256;7.152;2023-07-29T03:41:48;10.68;;;9.27;;
19543;SDS011;9917;51.256;7.152;2023-07-29T03:44:13;8.95;;;7.50;;
19543;SDS011;9917;51.256;7.152;2023-07-29T03:46:39;8.43;;;7.53;;
19543;SDS011;9917;51.256;7.152;2023-07-29T03:49:05;7.55;;;6.18;;
19543;SDS011;9917;51.256;7.152;2023-07-29T03:51:31;7.88;;;6.60;;
19543;SDS011;9917;51.256;7.152;2023-07-29T03:53:57;7.18;;;5.45;;
19543;SDS011;9917;51.256;7.152;2023-07-29T03:56:22;6.80;;;6.10;;
19543;SDS011;9917;51.256;7.152;2023-07-29T03:58:50;7.43;;;6.28;;
19543;SDS011;9917;51.256;7.152;2023-07-29T04:01:16;7.07;;;6.38;;
19543;SDS011;9917;51.256;7.152;2023-07-29T04:03:42;8.25;;;7.40;;
19543;SDS011;9917;51.256;7.152;2023-07-29T04:06:08;11.40;;;8.73;;
19543;SDS011;9917;51.256;7.152;2023-07-29T04:08:34;10.43;;;8.15;;
19543;SDS011;9917;51.256;7.152;2023-07-29T04:11:00;14.02;;;9.50;;
19543;SDS011;9917;51.256;7.152;2023-07-29T04:13:26;10.77;;;9.15;;
19543;SDS011;9917;51.256;7.152;2023-07-29T04:15:54;11.93;;;9.20;;
19543;SDS011;9917;51.256;7.152;2023-07-29T04:18:19;13.10;;;10.52;;
19543;SDS011;9917;51.256;7.152;2023-07-29T04:20:45;13.80;;;11.10;;
19543;SDS011;9917;51.256;7.152;2023-07-29T04:23:11;14.98;;;11.30;;
19543;SDS011;9917;51.256;7.152;2023-07-29T04:25:37;13.50;;;11.02;;
19543;SDS011;9917;51.256;7.152;2023-07-29T04:28:03;13.48;;;11.05;;
19543;SDS011;9917;51.256;7.152;2023-07-29T04:30:28;13.82;;;10.75;;
19543;SDS011;9917;51.256;7.152;2023-07-29T04:32:56;11.82;;;9.98;;
19543;SDS011;9917;51.256;7.152;2023-07-29T04:35:21;10.55;;;9.25;;
19543;SDS011;9917;51.256;7.152;2023-07-29T04:37:48;10.35;;;8.82;;
19543;SDS011;9917;51.256;7.152;2023-07-29T04:40:14;10.82;;;8.65;;
19543;SDS011;9917;51.256;7.152;2023-07-29T04:42:39;13.70;;;8.80;;
19543;SDS011;9917;51.256;7.152;2023-07-29T04:45:06;11.18;;;9.15;;
19543;SDS011;9917;51.256;7.152;2023-07-29T04:47:32;10.55;;;8.60;;
19543;SDS011;9917;51.256;7.152;2023-07-29T04:49:59;11.07;;;8.18;;
19543;SDS011;9917;51.256;7.152;2023-07-29T04:52:24;12.45;;;7.68;;
19543;SDS011;9917;51.256;7.152;2023-07-29T04:54:50;6.93;;;6.20;;
19543;SDS011;9917;51.256;7.152;2023-07-29T04:57:16;7.38;;;6.25;;
19543;SDS011;9917;51.256;7.152;2023-07-29T04:59:42;6.68;;;5.68;;
19543;SDS011;9917;51.256;7.152;2023-07-29T05:02:08;9.40;;;5.45;;
19543;SDS011;9917;51.256;7.152;2023-07-29T05:04:34;5.85;;;5.13;;
19543;SDS011;9917;51.256;7.152;2023-07-29T05:07:01;5.35;;;4.60;;
19543;SDS011;9917;51.256;7.152;2023-07-29T05:09:27;5.13;;;4.05;;
19543;SDS011;9917;51.256;7.152;2023-07-29T05:11:53;4.63;;;3.42;;
19543;SDS011;9917;51.256;7.152;2023-07-29T05:14:19;5.25;;;3.50;;
19543;SDS011;9917;51.256;7.152;2023-07-29T05:16:45;4.70;;;3.50;;
19543;SDS011;9917;51.256;7.152;2023-07-29T05:19:11;5.15;;;3.38;;
19543;SDS011;9917;51.256;7.152;2023-07-29T05:21:37;6.10;;;3.58;;
19543;SDS011;9917;51.256;7.152;2023-07-29T05:24:04;3.63;;;2.75;;
19543;SDS011;9917;51.256;7.152;2023-07-29T05:26:30;6.13;;;3.15;;
19543;SDS011;9917;51.256;7.152;2023-07-29T05:28:56;3.13;;;2.75;;
19543;SDS011;9917;51.256;7.152;2023-07-29T05:31:22;4.35;;;2.90;;
19543;SDS011;9917;51.256;7.152;2023-07-29T05:33:47;3.90;;;2.92;;
19543;SDS011;9917;51.256;7.152;2023-07-29T05:36:14;4.43;;;2.55;;
19543;SDS011;9917;51.256;7.152;2023-07-29T05:38:39;5.68;;;2.70;;
19543;SDS011;9917;51.256;7.152;2023-07-29T05:41:07;5.00;;;2.90;;
19543;SDS011;9917;51.256;7.152;2023-07-29T05:43:32;3.15;;;2.08;;
19543;SDS011;9917;51.256;7.152;2023-07-29T05:45:58;3.55;;;2.70;;
19543;SDS011;9917;51.256;7.152;2023-07-29T05:48:24;3.47;;;2.63;;
19543;SDS011;9917;51.256;7.152;2023-07-29T05:50:50;5.50;;;2.70;;
19543;SDS011;9917;51.256;7.152;2023-07-29T05:53:16;5.55;;;2.75;;
19543;SDS011;9917;51.256;7.152;2023-07-29T05:55:42;8.20;;;2.95;;
19543;SDS011;9917;51.256;7.152;2023-07-29T05:58:09;7.97;;;2.90;;
19543;SDS011;9917;51.256;7.152;2023-07-29T06:00:34;4.60;;;2.35;;
19543;SDS011;9917;51.256;7.152;2023-07-29T06:03:00;5.25;;;2.78;;
19543;SDS011;9917;51.256;7.152;2023-07-29T06:05:26;5.85;;;2.65;;
19543;SDS011;9917;51.256;7.152;2023-07-29T06:07:52;3.85;;;2.33;;
19543;SDS011;9917;51.256;7.152;2023-07-29T06:10:18;4.07;;;3.13;;
19543;SDS011;9917;51.256;7.152;2023-07-29T06:12:44;4.03;;;2.85;;
19543;SDS011;9917;51.256;7.152;2023-07-29T06:15:11;4.20;;;3.13;;
19543;SDS011;9917;51.256;7.152;2023-07-29T06:17:37;6.25;;;3.25;;
19543;SDS011;9917;51.256;7.152;2023-07-29T06:20:04;5.03;;;2.90;;
19543;SDS011;9917;51.256;7.152;2023-07-29T06:22:30;6.28;;;2.70;;
19543;SDS011;9917;51.256;7.152;2023-07-29T06:24:56;3.90;;;2.78;;
19543;SDS011;9917;51.256;7.152;2023-07-29T06:27:22;3.55;;;2.40;;
19543;SDS011;9917;51.256;7.152;2023-07-29T06:29:48;3.22;;;2.15;;
19543;SDS011;9917;51.256;7.152;2023-07-29T06:32:15;3.20;;;1.90;;
19543;SDS011;9917;51.256;7.152;2023-07-29T06:34:41;2.03;;;1.52;;
19543;SDS011;9917;51.256;7.152;2023-07-29T06:37:07;2.83;;;1.92;;
19543;SDS011;9917;51.256;7.152;2023-07-29T06:39:33;2.75;;;1.90;;
19543;SDS011;9917;51.256;7.152;2023-07-29T06:41:59;3.97;;;2.28;;
19543;SDS011;9917;51.256;7.152;2023-07-29T06:44:25;5.28;;;2.28;;
19543;SDS011;9917;51.256;7.152;2023-07-29T06:46:51;3.92;;;1.95;;
19543;SDS011;9917;51.256;7.152;2023-07-29T06:49:18;2.97;;;2.05;;
19543;SDS011;9917;51.256;7.152;2023-07-29T06:51:44;3.03;;;2.22;;
19543;SDS011;9917;51.256;7.152;2023-07-29T06:54:09;3.47;;;2.10;;
19543;SDS011;9917;51.256;7.152;2023-07-29T06:56:35;2.40;;;1.75;;
19543;SDS011;9917;51.256;7.152;2023-07-29T06:59:01;2.35;;;1.95;;
19543;SDS011;9917;51.256;7.152;2023-07-29T07:01:27;4.70;;;1.70;;
19543;SDS011;9917;51.256;7.152;2023-07-29T07:03:53;4.40;;;2.05;;
19543;SDS011;9917;51.256;7.152;2023-07-29T07:06:21;3.25;;;1.80;;
19543;SDS011;9917;51.256;7.152;2023-07-29T07:08:47;3.55;;;2.08;;
19543;SDS011;9917;51.256;7.152;2023-07-29T07:11:13;5.28;;;1.63;;
19543;SDS011;9917;51.256;7.152;2023-07-29T07:13:39;3.17;;;1.30;;
19543;SDS011;9917;51.256;7.152;2023-07-29T07:16:05;2.53;;;1.50;;
19543;SDS011;9917;51.256;7.152;2023-07-29T07:18:31;1.80;;;0.93;;
19543;SDS011;9917;51.256;7.152;2023-07-29T07:20:57;2.95;;;1.58;;
19543;SDS011;9917;51.256;7.152;2023-07-29T07:23:24;2.60;;;1.23;;
19543;SDS011;9917;51.256;7.152;2023-07-29T07:25:50;2.25;;;1.17;;
19543;SDS011;9917;51.256;7.152;2023-07-29T07:28:15;2.22;;;1.05;;
19543;SDS011;9917;51.256;7.152;2023-07-29T07:30:41;1.55;;;0.73;;
19543;SDS011;9917;51.256;7.152;2023-07-29T07:33:07;2.47;;;1.30;;
19543;SDS011;9917;51.256;7.152;2023-07-29T07:35:33;4.07;;;1.30;;
19543;SDS011;9917;51.256;7.152;2023-07-29T07:37:59;1.40;;;0.80;;
19543;SDS011;9917;51.256;7.152;2023-07-29T07:40:26;4.50;;;1.30;;
19543;SDS011;9917;51.256;7.152;2023-07-29T07:42:52;2.25;;;0.88;;
19543;SDS011;9917;51.256;7.152;2023-07-29T07:45:17;2.65;;;1.10;;
19543;SDS011;9917;51.256;7.152;2023-07-29T07:47:43;2.22;;;1.10;;
19543;SDS011;9917;51.256;7.152;2023-07-29T07:50:09;1.50;;;0.90;;
19543;SDS011;9917;51.256;7.152;2023-07-29T07:52:35;7.10;;;1.27;;
19543;SDS011;9917;51.256;7.152;2023-07-29T07:55:01;2.97;;;1.10;;
19543;SDS011;9917;51.256;7.152;2023-07-29T07:57:29;1.92;;;1.10;;
19543;SDS011;9917;51.256;7.152;2023-07-29T07:59:54;2.60;;;0.80;;
19543;SDS011;9917;51.256;7.152;2023-07-29T08:02:20;1.85;;;1.10;;
19543;SDS011;9917;51.256;7.152;2023-07-29T08:04:46;1.60;;;0.85;;
19543;SDS011;9917;51.256;7.152;2023-07-29T08:07:12;3.65;;;1.13;;
19543;SDS011;9917;51.256;7.152;2023-07-29T08:09:38;4.22;;;1.08;;
19543;SDS011;9917;51.256;7.152;2023-07-29T08:12:04;2.65;;;0.82;;
19543;SDS011;9917;51.256;7.152;2023-07-29T08:14:31;1.80;;;0.98;;
19543;SDS011;9917;51.256;7.152;2023-07-29T08:16:57;2.55;;;0.95;;
19543;SDS011;9917;51.256;7.152;2023-07-29T08:19:23;2.10;;;0.90;;
19543;SDS011;9917;51.256;7.152;2023-07-29T08:21:49;3.17;;;1.77;;
19543;SDS011;9917;51.256;7.152;2023-07-29T08:24:14;3.95;;;1.42;;
19543;SDS011;9917;51.256;7.152;2023-07-29T08:26:40;2.08;;;0.90;;
19543;SDS011;9917;51.256;7.152;2023-07-29T08:29:06;1.85;;;0.80;;
19543;SDS011;9917;51.256;7.152;2023-07-29T08:31:33;2.65;;;0.95;;
19543;SDS011;9917;51.256;7.152;2023-07-29T08:33:59;1.65;;;0.80;;
19543;SDS011;9917;51.256;7.152;2023-07-29T08:36:25;1.77;;;0.63;;
19543;SDS011;9917;51.256;7.152;2023-07-29T08:38:51;1.30;;;0.70;;
19543;SDS011;9917;51.256;7.152;2023-07-29T08:41:19;1.27;;;0.60;;
19543;SDS011;9917;51.256;7.152;2023-07-29T08:43:50;2.25;;;0.70;;
19543;SDS011;9917;51.256;7.152;2023-07-29T08:46:21;0.90;;;0.55;;
19543;SDS011;9917;51.256;7.152;2023-07-29T08:48:48;1.02;;;0.60;;
19543;SDS011;9917;51.256;7.152;2023-07-29T08:51:15;1.33;;;0.70;;
19543;SDS011;9917;51.256;7.152;2023-07-29T08:53:42;1.10;;;0.40;;
19543;SDS011;9917;51.256;7.152;2023-07-29T08:56:08;3.08;;;0.50;;
19543;SDS011;9917;51.256;7.152;2023-07-29T08:58:34;1.00;;;0.40;;
19543;SDS011;9917;51.256;7.152;2023-07-29T09:01:00;1.73;;;0.50;;
19543;SDS011;9917;51.256;7.152;2023-07-29T09:03:26;1.95;;;0.88;;
19543;SDS011;9917;51.256;7.152;2023-07-29T09:05:54;1.40;;;0.70;;
19543;SDS011;9917;51.256;7.152;2023-07-29T09:08:20;1.05;;;0.40;;
19543;SDS011;9917;51.256;7.152;2023-07-29T09:10:47;2.20;;;0.50;;
19543;SDS011;9917;51.256;7.152;2023-07-29T09:13:14;1.63;;;0.45;;
19543;SDS011;9917;51.256;7.152;2023-07-29T09:15:39;1.10;;;0.52;;
19543;SDS011;9917;51.256;7.152;2023-07-29T09:18:08;2.28;;;0.73;;
19543;SDS011;9917;51.256;7.152;2023-07-29T09:20:36;1.08;;;0.50;;
19543;SDS011;9917;51.256;7.152;2023-07-29T09:23:03;0.80;;;0.40;;
19543;SDS011;9917;51.256;7.152;2023-07-29T09:25:32;1.58;;;0.55;;
19543;SDS011;9917;51.256;7.152;2023-07-29T09:27:59;1.30;;;0.60;;
19543;SDS011;9917;51.256;7.152;2023-07-29T09:30:25;1.33;;;0.55;;
19543;SDS011;9917;51.256;7.152;2023-07-29T09:32:52;2.40;;;0.70;;
19543;SDS011;9917;51.256;7.152;2023-07-29T09:35:20;3.22;;;0.90;;
19543;SDS011;9917;51.256;7.152;2023-07-29T09:37:46;1.73;;;0.50;;
19543;SDS011;9917;51.256;7.152;2023-07-29T09:40:14;2.00;;;0.75;;
19543;SDS011;9917;51.256;7.152;2023-07-29T09:42:40;3.05;;;0.82;;
19543;SDS011;9917;51.256;7.152;2023-07-29T09:45:14;1.65;;;0.57;;
19543;SDS011;9917;51.256;7.152;2023-07-29T09:47:45;1.00;;;0.40;;
19543;SDS011;9917;51.256;7.152;2023-07-29T09:50:11;1.10;;;0.50;;
19543;SDS011;9917;51.256;7.152;2023-07-29T09:52:37;2.25;;;0.60;;
19543;SDS011;9917;51.256;7.152;2023-07-29T09:55:03;2.95;;;0.60;;
19543;SDS011;9917;51.256;7.152;2023-07-29T09:57:31;3.78;;;0.70;;
19543;SDS011;9917;51.256;7.152;2023-07-29T09:59:57;4.47;;;0.80;;
19543;SDS011;9917;51.256;7.152;2023-07-29T10:02:23;1.45;;;0.70;;
19543;SDS011;9917;51.256;7.152;2023-07-29T10:04:49;1.38;;;0.50;;
19543;SDS011;9917;51.256;7.152;2023-07-29T10:07:15;1.58;;;0.40;;
19543;SDS011;9917;51.256;7.152;2023-07-29T10:09:41;1.50;;;0.63;;
19543;SDS011;9917;51.256;7.152;2023-07-29T10:12:08;1.08;;;0.50;;
19543;SDS011;9917;51.256;7.152;2023-07-29T10:14:38;1.42;;;0.50;;
19543;SDS011;9917;51.256;7.152;2023-07-29T10:17:04;2.97;;;1.00;;
19543;SDS011;9917;51.256;7.152;2023-07-29T10:19:30;2.35;;;0.73;;
19543;SDS011;9917;51.256;7.152;2023-07-29T10:21:58;1.48;;;0.43;;
19543;SDS011;9917;51.256;7.152;2023-07-29T10:24:25;1.30;;;0.50;;
19543;SDS011;9917;51.256;7.152;2023-07-29T10:26:57;1.30;;;1.00;;
19543;SDS011;9917;51.256;7.152;2023-07-29T10:29:23;1.83;;;0.50;;
19543;SDS011;9917;51.256;7.152;2023-07-29T10:31:51;1.00;;;0.47;;
19543;SDS011;9917;51.256;7.152;2023-07-29T10:34:18;2.22;;;0.75;;
19543;SDS011;9917;51.256;7.152;2023-07-29T10:36:44;1.73;;;0.60;;
19543;SDS011;9917;51.256;7.152;2023-07-29T10:39:11;2.35;;;0.32;;
19543;SDS011;9917;51.256;7.152;2023-07-29T10:41:56;1.13;;;0.40;;
19543;SDS011;9917;51.256;7.152;2023-07-29T10:47:15;1.95;;;0.50;;
19543;SDS011;9917;51.256;7.152;2023-07-29T10:49:41;1.10;;;0.40;;
19543;SDS011;9917;51.256;7.152;2023-07-29T10:52:07;2.28;;;0.50;;
19543;SDS011;9917;51.256;7.152;2023-07-29T10:54:39;2.42;;;0.85;;
19543;SDS011;9917;51.256;7.152;2023-07-29T10:57:07;1.13;;;0.40;;
19543;SDS011;9917;51.256;7.152;2023-07-29T10:59:33;2.00;;;0.47;;
19543;SDS011;9917;51.256;7.152;2023-07-29T11:01:59;1.02;;;0.30;;
19543;SDS011;9917;51.256;7.152;2023-07-29T11:04:28;1.25;;;0.57;;
19543;SDS011;9917;51.256;7.152;2023-07-29T11:09:53;3.05;;;0.80;;
19543;SDS011;9917;51.256;7.152;2023-07-29T11:12:39;1.40;;;0.60;;
19543;SDS011;9917;51.256;7.152;2023-07-29T11:15:13;2.10;;;0.65;;
19543;SDS011;9917;51.256;7.152;2023-07-29T11:17:40;1.38;;;0.50;;
19543;SDS011;9917;51.256;7.152;2023-07-29T11:20:08;1.70;;;0.50;;
19543;SDS011;9917;51.256;7.152;2023-07-29T11:22:35;1.58;;;0.52;;
19543;SDS011;9917;51.256;7.152;2023-07-29T11:25:01;1.70;;;0.70;;
19543;SDS011;9917;51.256;7.152;2023-07-29T11:27:27;1.45;;;0.75;;
19543;SDS011;9917;51.256;7.152;2023-07-29T11:29:56;1.10;;;0.50;;
19543;SDS011;9917;51.256;7.152;2023-07-29T11:32:22;0.93;;;0.50;;
19543;SDS011;9917;51.256;7.152;2023-07-29T11:34:48;4.03;;;0.70;;
19543;SDS011;9917;51.256;7.152;2023-07-29T11:37:15;1.75;;;0.80;;
19543;SDS011;9917;51.256;7.152;2023-07-29T11:39:41;1.45;;;0.60;;
19543;SDS011;9917;51.256;7.152;2023-07-29T11:42:07;2.13;;;0.70;;
19543;SDS011;9917;51.256;7.152;2023-07-29T11:44:36;1.50;;;0.70;;
19543;SDS011;9917;51.256;7.152;2023-07-29T11:47:02;1.17;;;0.50;;
19543;SDS011;9917;51.256;7.152;2023-07-29T11:49:30;6.25;;;0.70;;
19543;SDS011;9917;51.256;7.152;2023-07-29T11:51:58;1.85;;;0.70;;
19543;SDS011;9917;51.256;7.152;2023-07-29T11:54:25;4.35;;;0.70;;
19543;SDS011;9917;51.256;7.152;2023-07-29T11:56:50;1.90;;;0.70;;
19543;SDS011;9917;51.256;7.152;2023-07-29T11:59:16;3.60;;;0.95;;
19543;SDS011;9917;51.256;7.152;2023-07-29T12:01:42;2.78;;;0.82;;
19543;SDS011;9917;51.256;7.152;2023-07-29T12:04:08;3.85;;;0.95;;
19543;SDS011;9917;51.256;7.152;2023-07-29T12:06:35;3.15;;;0.70;;
19543;SDS011;9917;51.256;7.152;2023-07-29T12:09:01;2.08;;;0.90;;
19543;SDS011;9917;51.256;7.152;2023-07-29T12:11:28;2.38;;;1.13;;
19543;SDS011;9917;51.256;7.152;2023-07-29T12:13:55;3.97;;;0.82;;
19543;SDS011;9917;51.256;7.152;2023-07-29T12:16:20;1.00;;;0.65;;
19543;SDS011;9917;51.256;7.152;2023-07-29T12:18:46;2.10;;;0.70;;
19543;SDS011;9917;51.256;7.152;2023-07-29T12:21:13;2.25;;;1.00;;
19543;SDS011;9917;51.256;7.152;2023-07-29T12:23:39;1.63;;;1.00;;
19543;SDS011;9917;51.256;7.152;2023-07-29T12:26:05;2.45;;;1.08;;
19543;SDS011;9917;51.256;7.152;2023-07-29T12:28:32;4.85;;;1.05;;
19543;SDS011;9917;51.256;7.152;2023-07-29T12:30:58;1.20;;;0.88;;
19543;SDS011;9917;51.256;7.152;2023-07-29T12:33:30;1.77;;;0.90;;
19543;SDS011;9917;51.256;7.152;2023-07-29T12:35:57;1.73;;;0.80;;
19543;SDS011;9917;51.256;7.152;2023-07-29T12:38:22;2.70;;;0.80;;
19543;SDS011;9917;51.256;7.152;2023-07-29T12:40:50;1.70;;;0.80;;
19543;SDS011;9917;51.256;7.152;2023-07-29T12:43:16;3.63;;;1.00;;
19543;SDS011;9917;51.256;7.152;2023-07-29T12:45:43;1.27;;;0.70;;
19543;SDS011;9917;51.256;7.152;2023-07-29T12:48:09;1.23;;;0.80;;
19543;SDS011;9917;51.256;7.152;2023-07-29T12:50:35;1.75;;;0.85;;
19543;SDS011;9917;51.256;7.152;2023-07-29T12:53:01;2.22;;;0.75;;
19543;SDS011;9917;51.256;7.152;2023-07-29T12:55:27;2.05;;;0.90;;
19543;SDS011;9917;51.256;7.152;2023-07-29T12:57:53;2.75;;;1.15;;
19543;SDS011;9917;51.256;7.152;2023-07-29T13:00:19;3.60;;;0.85;;
19543;SDS011;9917;51.256;7.152;2023-07-29T13:02:46;1.38;;;0.70;;
19543;SDS011;9917;51.256;7.152;2023-07-29T13:05:12;2.67;;;1.00;;
19543;SDS011;9917;51.256;7.152;2023-07-29T13:07:38;1.73;;;0.75;;
19543;SDS011;9917;51.256;7.152;2023-07-29T13:10:04;1.73;;;0.82;;
19543;SDS011;9917;51.256;7.152;2023-07-29T13:12:30;1.60;;;0.80;;
19543;SDS011;9917;51.256;7.152;2023-07-29T13:14:56;1.80;;;0.93;;
19543;SDS011;9917;51.256;7.152;2023-07-29T13:17:22;2.17;;;0.85;;
19543;SDS011;9917;51.256;7.152;2023-07-29T13:19:49;2.13;;;0.90;;
19543;SDS011;9917;51.256;7.152;2023-07-29T13:22:15;1.88;;;0.82;;
19543;SDS011;9917;51.256;7.152;2023-07-29T13:24:41;2.08;;;1.00;;
19543;SDS011;9917;51.256;7.152;2023-07-29T13:27:06;3.17;;;1.00;;
19543;SDS011;9917;51.256;7.152;2023-07-29T13:29:32;2.33;;;1.00;;
19543;SDS011;9917;51.256;7.152;2023-07-29T13:31:59;2.22;;;0.98;;
19543;SDS011;9917;51.256;7.152;2023-07-29T13:34:25;1.98;;;0.90;;
19543;SDS011;9917;51.256;7.152;2023-07-29T13:36:53;1.85;;;1.10;;
19543;SDS011;9917;51.256;7.152;2023-07-29T13:39:18;2.78;;;1.00;;
19543;SDS011;9917;51.256;7.152;2023-07-29T13:41:44;1.35;;;0.90;;
19543;SDS011;9917;51.256;7.152;2023-07-29T13:44:10;2.70;;;1.00;;
19543;SDS011;9917;51.256;7.152;2023-07-29T13:46:36;1.25;;;0.85;;
19543;SDS011;9917;51.256;7.152;2023-07-29T13:49:02;1.63;;;0.90;;
19543;SDS011;9917;51.256;7.152;2023-07-29T13:51:28;1.77;;;0.88;;
19543;SDS011;9917;51.256;7.152;2023-07-29T13:53:55;1.75;;;1.08;;
19543;SDS011;9917;51.256;7.152;2023-07-29T13:56:21;3.17;;;1.30;;
19543;SDS011;9917;51.256;7.152;2023-07-29T13:58:47;2.30;;;1.20;;
19543;SDS011;9917;51.256;7.152;2023-07-29T14:01:13;1.40;;;1.00;;
19543;SDS011;9917;51.256;7.152;2023-07-29T14:03:38;1.50;;;0.90;;
19543;SDS011;9917;51.256;7.152;2023-07-29T14:06:04;1.60;;;1.10;;
19543;SDS011;9917;51.256;7.152;2023-07-29T14:08:30;2.90;;;1.00;;
19543;SDS011;9917;51.256;7.152;2023-07-29T14:10:57;2.95;;;1.35;;
19543;SDS011;9917;51.256;7.152;2023-07-29T14:13:23;2.15;;;1.05;;
19543;SDS011;9917;51.256;7.152;2023-07-29T14:15:49;3.80;;;1.25;;
19543;SDS011;9917;51.256;7.152;2023-07-29T14:18:15;2.05;;;1.08;;
19543;SDS011;9917;51.256;7.152;2023-07-29T14:20:41;1.60;;;0.90;;
19543;SDS011;9917;51.256;7.152;2023-07-29T14:23:06;1.60;;;0.90;;
19543;SDS011;9917;51.256;7.152;2023-07-29T14:25:32;1.67;;;0.82;;
19543;SDS011;9917;51.256;7.152;2023-07-29T14:28:00;2.25;;;1.10;;
19543;SDS011;9917;51.256;7.152;2023-07-29T14:30:25;3.67;;;1.10;;
19543;SDS011;9917;51.256;7.152;2023-07-29T14:32:51;2.85;;;1.20;;
19543;SDS011;9917;51.256;7.152;2023-07-29T14:35:17;3.85;;;0.93;;
19543;SDS011;9917;51.256;7.152;2023-07-29T14:37:43;3.05;;;1.00;;
19543;SDS011;9917;51.256;7.152;2023-07-29T14:40:09;1.70;;;0.93;;
19543;SDS011;9917;51.256;7.152;2023-07-29T14:42:35;1.58;;;0.95;;
19543;SDS011;9917;51.256;7.152;2023-07-29T14:45:03;2.03;;;1.10;;
19543;SDS011;9917;51.256;7.152;2023-07-29T14:47:29;2.03;;;0.90;;
19543;SDS011;9917;51.256;7.152;2023-07-29T14:49:55;2.00;;;1.20;;
19543;SDS011;9917;51.256;7.152;2023-07-29T14:52:21;2.08;;;0.80;;
19543;SDS011;9917;51.256;7.152;2023-07-29T14:54:47;2.17;;;1.00;;
19543;SDS011;9917;51.256;7.152;2023-07-29T14:57:13;2.53;;;1.00;;
19543;SDS011;9917;51.256;7.152;2023-07-29T14:59:39;1.80;;;1.00;;
19543;SDS011;9917;51.256;7.152;2023-07-29T15:02:06;1.63;;;0.80;;